Time;durP1;ratioP1;P1;durP2;ratioP2;P2;SDS_P1;SDS_P2;PMS_P1;PMS_P2;Temp;Humidity;BMP_temperature;BMP_pressure;BME280_temperature;BME280_humidity;BME280_pressure;Samples;Min_cycle;Max_cycle;Signal;HPM_P1;HPM_P2
2021/12/21 00:01:55;;;;;;;30.57;16.00;;;3.30;99.90;;;;;;5115715;28;20448;-88
2021/12/21 00:04:25;;;;;;;37.13;16.57;;;3.30;99.90;;;;;;5115656;28;20998;-89
2021/12/21 00:06:58;;;;;;;38.13;16.73;;;3.30;99.90;;;;;;5115990;28;20962;-90
2021/12/21 00:09:25;;;;;;;38.30;15.73;;;3.20;99.90;;;;;;5115949;28;20774;-89
2021/12/21 00:12:24;;;;;;;35.20;16.20;;;3.20;99.90;;;;;;5115952;28;20448;-89
2021/12/21 00:15:02;;;;;;;35.73;16.00;;;3.20;99.90;;;;;;5115902;28;20807;-88
2021/12/21 00:17:48;;;;;;;41.53;17.43;;;3.20;99.90;;;;;;5115801;28;20447;-90
2021/12/21 00:20:28;;;;;;;46.43;16.80;;;3.20;99.90;;;;;;5115823;28;20479;-88
2021/12/21 00:23:32;;;;;;;43.47;17.17;;;3.10;99.90;;;;;;5116316;27;20518;-89
2021/12/21 00:26:06;;;;;;;34.63;15.70;;;3.10;99.90;;;;;;5114518;28;20445;-89
2021/12/21 00:28:41;;;;;;;39.63;16.67;;;3.10;99.90;;;;;;5115519;28;20486;-90
2021/12/21 00:31:12;;;;;;;31.50;16.17;;;3.10;99.90;;;;;;5115310;28;20930;-88
2021/12/21 00:33:41;;;;;;;40.17;17.63;;;3.10;99.90;;;;;;5115483;28;20453;-89
2021/12/21 00:36:11;;;;;;;38.33;17.57;;;3.10;99.90;;;;;;5115946;28;20464;-89
2021/12/21 00:38:41;;;;;;;48.50;18.73;;;3.00;99.90;;;;;;5115068;28;20453;-90
2021/12/21 00:41:14;;;;;;;41.80;18.27;;;3.10;99.90;;;;;;5115100;28;20935;-89
2021/12/21 00:43:43;;;;;;;43.40;18.90;;;3.00;99.90;;;;;;5115201;28;20452;-89
2021/12/21 00:46:11;;;;;;;50.23;19.13;;;3.00;99.90;;;;;;5113995;28;20505;-89
2021/12/21 00:48:49;;;;;;;48.00;18.43;;;3.00;99.90;;;;;;5115219;28;20469;-91
2021/12/21 00:51:28;;;;;;;41.70;18.53;;;2.90;99.90;;;;;;5113721;28;20444;-90
2021/12/21 00:53:58;;;;;;;40.73;18.57;;;3.00;99.90;;;;;;5115590;28;20444;-89
2021/12/21 00:56:25;;;;;;;43.63;20.17;;;2.90;99.90;;;;;;5116570;28;20448;-90
2021/12/21 00:58:54;;;;;;;48.00;19.00;;;2.90;99.90;;;;;;5121947;28;20440;-89
2021/12/21 01:01:21;;;;;;;38.10;18.03;;;2.80;99.90;;;;;;5122052;28;20455;-90
2021/12/21 01:03:57;;;;;;;45.17;18.50;;;2.90;99.90;;;;;;5121281;28;20448;-90
2021/12/21 01:06:39;;;;;;;40.03;18.33;;;2.80;99.90;;;;;;5120450;28;20452;-90
2021/12/21 01:09:14;;;;;;;39.87;18.37;;;2.70;99.90;;;;;;5115942;28;20746;-90
2021/12/21 01:11:51;;;;;;;46.03;18.80;;;2.60;99.90;;;;;;5115469;28;20444;-89
2021/12/21 01:14:55;;;;;;;44.70;18.53;;;2.60;99.90;;;;;;5114767;28;20453;-89
2021/12/21 01:17:27;;;;;;;42.97;19.67;;;2.50;99.90;;;;;;5114680;28;20463;-88
2021/12/21 01:20:06;;;;;;;42.57;18.63;;;2.50;99.90;;;;;;5114848;28;20927;-90
2021/12/21 01:22:55;;;;;;;49.03;19.40;;;2.50;99.90;;;;;;5114887;28;20453;-89
2021/12/21 01:25:38;;;;;;;34.13;18.03;;;2.50;99.90;;;;;;5114501;28;20473;-89
2021/12/21 01:28:18;;;;;;;45.50;19.07;;;2.40;99.90;;;;;;5114559;28;20826;-89
2021/12/21 01:30:58;;;;;;;39.87;19.33;;;2.40;99.90;;;;;;5114779;28;20933;-89
2021/12/21 01:33:43;;;;;;;35.10;18.80;;;2.30;99.90;;;;;;5114433;28;20432;-90
2021/12/21 01:36:36;;;;;;;44.47;23.38;;;2.20;99.90;;;;;;5114346;28;20473;-90
2021/12/21 01:42:19;;;;;;;51.83;20.67;;;2.40;99.90;;;;;;5113881;27;21186;-90
2021/12/21 01:51:04;;;;;;;52.50;20.03;;;2.20;99.90;;;;;;5113235;28;20420;-89
2021/12/21 01:54:10;;;;;;;44.40;19.30;;;2.20;99.90;;;;;;5114410;28;20471;-89
2021/12/21 01:56:44;;;;;;;46.70;20.13;;;2.10;99.90;;;;;;5114902;28;21133;-90
2021/12/21 01:59:11;;;;;;;39.50;18.50;;;2.10;99.90;;;;;;5116792;28;20497;-89
2021/12/21 02:01:38;;;;;;;47.17;21.00;;;2.00;99.90;;;;;;5117496;28;20854;-88
2021/12/21 02:04:05;;;;;;;48.53;19.67;;;2.00;99.90;;;;;;5118460;28;20452;-89
2021/12/21 02:06:35;;;;;;;43.03;20.83;;;2.00;99.90;;;;;;5118687;28;20440;-87
2021/12/21 02:09:02;;;;;;;42.63;20.10;;;2.00;99.90;;;;;;5116415;28;20961;-90
2021/12/21 02:11:29;;;;;;;44.70;19.67;;;2.00;99.90;;;;;;5113593;28;20453;-90
2021/12/21 02:13:59;;;;;;;43.23;19.47;;;2.00;99.90;;;;;;5114123;28;20452;-90
2021/12/21 02:16:32;;;;;;;46.03;19.97;;;1.90;99.90;;;;;;5114116;28;20827;-87
2021/12/21 02:19:03;;;;;;;49.17;21.50;;;1.80;99.90;;;;;;5113079;28;20433;-88
2021/12/21 02:21:41;;;;;;;46.47;20.67;;;1.90;99.90;;;;;;5113636;28;20818;-88
2021/12/21 02:24:15;;;;;;;46.43;20.77;;;1.90;99.90;;;;;;5114480;28;20515;-90
2021/12/21 02:27:17;;;;;;;49.87;21.63;;;1.80;99.90;;;;;;5117672;28;20490;-88
2021/12/21 02:29:50;;;;;;;42.67;20.77;;;1.80;99.90;;;;;;5117793;27;20451;-89
2021/12/21 02:32:20;;;;;;;40.57;19.73;;;1.70;99.90;;;;;;5116514;28;20494;-90
2021/12/21 02:34:47;;;;;;;42.07;20.20;;;1.70;99.90;;;;;;5117661;28;20464;-89
2021/12/21 02:37:18;;;;;;;45.97;19.90;;;1.60;99.90;;;;;;5117860;28;20448;-89
2021/12/21 02:40:23;;;;;;;45.00;19.43;;;1.70;99.90;;;;;;5116778;28;20437;-89
2021/12/21 02:42:53;;;;;;;36.00;18.80;;;1.60;99.90;;;;;;5117615;28;20817;-89
2021/12/21 02:45:20;;;;;;;45.77;20.37;;;1.70;99.90;;;;;;5116001;28;20496;-89
2021/12/21 02:47:50;;;;;;;50.93;20.13;;;1.70;99.90;;;;;;5117744;28;20468;-90
2021/12/21 02:50:20;;;;;;;45.70;19.50;;;1.60;99.90;;;;;;5117867;28;20451;-89
2021/12/21 02:52:51;;;;;;;49.97;20.93;;;1.50;99.90;;;;;;5117789;28;20433;-89
2021/12/21 02:55:24;;;;;;;40.07;18.37;;;1.50;99.90;;;;;;5117553;28;20457;-89
2021/12/21 02:57:57;;;;;;;42.43;19.77;;;1.50;99.90;;;;;;5117513;28;20459;-90
2021/12/21 03:00:25;;;;;;;47.33;20.60;;;1.60;99.90;;;;;;5133393;27;20464;-89
2021/12/21 03:02:53;;;;;;;47.53;18.97;;;1.60;99.90;;;;;;5120744;28;20449;-88
2021/12/21 03:05:20;;;;;;;42.10;19.37;;;1.70;99.90;;;;;;5119822;27;20487;-88
2021/12/21 03:08:06;;;;;;;43.23;19.27;;;1.70;99.90;;;;;;5119719;28;20444;-89
2021/12/21 03:10:38;;;;;;;54.37;19.77;;;1.50;99.90;;;;;;5118427;28;20984;-90
2021/12/21 03:15:51;;;;;;;43.80;19.63;;;1.30;99.90;;;;;;5117283;28;20428;-88
2021/12/21 03:18:19;;;;;;;38.93;20.07;;;1.30;99.90;;;;;;5115779;28;20449;-90
2021/12/21 03:20:46;;;;;;;43.03;19.33;;;1.20;99.90;;;;;;5116710;28;20452;-91
2021/12/21 03:23:19;;;;;;;38.37;19.43;;;1.30;99.90;;;;;;5116859;28;20445;-87
2021/12/21 03:25:50;;;;;;;50.10;24.55;;;1.30;99.90;;;;;;5116074;28;20904;-89
2021/12/21 03:28:20;;;;;;;46.30;20.50;;;1.40;99.90;;;;;;5116473;28;20204;-88
2021/12/21 03:30:53;;;;;;;40.67;19.20;;;1.40;99.90;;;;;;5116810;28;20809;-90
2021/12/21 03:33:20;;;;;;;46.97;20.23;;;1.30;99.90;;;;;;5117127;28;20479;-91
2021/12/21 03:35:53;;;;;;;39.47;18.83;;;1.30;99.90;;;;;;5116057;28;20480;-90
2021/12/21 03:38:26;;;;;;;35.60;17.97;;;1.20;99.90;;;;;;5116530;28;20436;-89
2021/12/21 03:41:02;;;;;;;48.43;19.37;;;1.20;99.90;;;;;;5116828;28;20445;-89
2021/12/21 03:43:34;;;;;;;47.27;19.87;;;1.30;99.90;;;;;;5116838;28;20484;-88
2021/12/21 03:46:09;;;;;;;41.53;17.90;;;1.20;99.90;;;;;;5116492;28;20472;-88
2021/12/21 03:48:48;;;;;;;43.27;19.17;;;1.20;99.90;;;;;;5116538;28;20473;-89
2021/12/21 03:51:17;;;;;;;43.43;19.43;;;1.10;99.90;;;;;;5115472;28;20927;-89
2021/12/21 03:53:47;;;;;;;36.77;18.47;;;1.20;99.90;;;;;;5116355;28;20786;-90
2021/12/21 03:56:37;;;;;;;39.20;19.53;;;1.20;99.90;;;;;;5116259;28;20449;-89
2021/12/21 03:59:06;;;;;;;43.23;18.40;;;1.20;99.90;;;;;;5115900;28;20880;-89
2021/12/21 04:01:39;;;;;;;41.07;18.50;;;1.10;99.90;;;;;;5116293;28;20973;-90
2021/12/21 04:04:09;;;;;;;43.63;18.73;;;1.00;99.90;;;;;;5115283;28;20452;-89
2021/12/21 04:06:39;;;;;;;37.80;18.90;;;0.90;99.90;;;;;;5116040;28;20504;-89
2021/12/21 04:09:21;;;;;;;38.20;18.27;;;1.00;99.90;;;;;;5115741;28;20460;-89
2021/12/21 04:11:52;;;;;;;47.40;19.67;;;1.00;99.90;;;;;;5115851;28;20939;-88
2021/12/21 04:14:20;;;;;;;40.57;18.67;;;1.00;99.90;;;;;;5115909;28;20460;-90
2021/12/21 04:16:51;;;;;;;41.90;18.67;;;0.90;99.90;;;;;;5116039;28;20453;-89
2021/12/21 04:19:24;;;;;;;39.77;19.33;;;1.00;99.90;;;;;;5115624;28;20486;-90
2021/12/21 04:21:54;;;;;;;45.43;19.20;;;0.90;99.90;;;;;;5115557;28;20959;-90
2021/12/21 04:24:24;;;;;;;53.30;19.97;;;0.90;99.90;;;;;;5115715;28;20432;-87
2021/12/21 04:26:56;;;;;;;38.00;18.27;;;0.90;99.90;;;;;;5114121;28;20480;-88
2021/12/21 04:29:26;;;;;;;46.37;19.70;;;0.80;99.90;;;;;;5115991;28;20796;-88
2021/12/21 04:31:59;;;;;;;44.17;19.47;;;0.80;99.90;;;;;;5113088;28;20449;-89
2021/12/21 04:34:34;;;;;;;36.73;19.43;;;0.80;99.90;;;;;;5115914;28;20445;-88
2021/12/21 04:37:02;;;;;;;45.77;20.00;;;0.90;99.90;;;;;;5115328;28;20452;-87
2021/12/21 04:39:39;;;;;;;41.17;19.13;;;0.80;99.90;;;;;;5115476;28;20463;-89
2021/12/21 04:42:11;;;;;;;48.83;19.60;;;0.90;99.90;;;;;;5115012;28;20449;-88
2021/12/21 04:44:46;;;;;;;46.27;20.83;;;0.70;99.90;;;;;;5115437;28;20445;-88
2021/12/21 04:47:16;;;;;;;41.13;20.27;;;0.80;99.90;;;;;;5115157;28;20476;-89
2021/12/21 04:49:46;;;;;;;46.13;20.23;;;0.70;99.90;;;;;;5114428;28;20452;-87
2021/12/21 04:52:18;;;;;;;45.70;19.80;;;0.80;99.90;;;;;;5115092;28;20769;-88
2021/12/21 04:54:51;;;;;;;49.73;20.10;;;0.80;99.90;;;;;;5115133;28;20449;-91
2021/12/21 04:57:30;;;;;;;44.90;19.43;;;0.80;99.90;;;;;;5115071;28;20449;-88
2021/12/21 05:00:06;;;;;;;36.77;19.30;;;0.80;99.90;;;;;;5114933;28;20931;-88
2021/12/21 05:03:07;;;;;;;37.53;19.37;;;0.80;99.90;;;;;;5115442;28;20440;-89
2021/12/21 05:05:37;;;;;;;42.90;18.30;;;0.80;99.90;;;;;;5114911;28;20491;-90
2021/12/21 05:08:09;;;;;;;41.87;18.83;;;0.80;99.90;;;;;;5115171;28;20978;-89
2021/12/21 05:10:57;;;;;;;41.77;19.60;;;0.60;99.90;;;;;;5114938;28;20455;-88
2021/12/21 05:13:33;;;;;;;38.30;17.93;;;0.50;99.90;;;;;;5114734;28;20529;-88
2021/12/21 05:16:03;;;;;;;38.40;19.93;;;0.60;99.90;;;;;;5114614;28;20445;-88
2021/12/21 05:18:32;;;;;;;35.17;19.83;;;0.70;99.90;;;;;;5114703;28;20883;-92
2021/12/21 05:21:02;;;;;;;53.17;20.50;;;0.70;99.90;;;;;;5113463;28;20509;-88
2021/12/21 05:23:35;;;;;;;45.23;19.43;;;0.50;99.90;;;;;;5114389;28;20445;-87
2021/12/21 05:26:07;;;;;;;41.53;20.43;;;0.50;99.90;;;;;;5114227;28;20971;-86
2021/12/21 05:28:36;;;;;;;43.30;19.97;;;0.50;99.90;;;;;;5114724;28;20476;-89
2021/12/21 05:31:08;;;;;;;48.33;22.00;;;0.50;99.90;;;;;;5114723;28;20452;-89
2021/12/21 05:33:42;;;;;;;48.63;20.47;;;0.60;99.90;;;;;;5114751;28;20788;-90
2021/12/21 05:36:50;;;;;;;53.17;21.33;;;0.70;99.90;;;;;;5114254;28;20464;-89
2021/12/21 05:39:23;;;;;;;42.93;20.40;;;0.50;99.90;;;;;;5130316;27;20448;-89
2021/12/21 05:41:55;;;;;;;57.63;23.07;;;0.60;99.90;;;;;;5113400;28;20519;-89
2021/12/21 05:44:26;;;;;;;43.90;21.43;;;0.50;99.90;;;;;;5114483;28;20528;-89
2021/12/21 05:46:56;;;;;;;52.07;21.10;;;0.60;99.90;;;;;;5114075;28;20485;-90
2021/12/21 05:49:29;;;;;;;50.07;21.03;;;0.60;99.90;;;;;;5114463;28;20463;-89
2021/12/21 05:52:02;;;;;;;57.70;31.08;;;0.60;99.90;;;;;;5113245;28;20407;-89
2021/12/21 05:54:34;;;;;;;55.53;24.00;;;0.80;99.90;;;;;;5113940;28;20204;-90
2021/12/21 05:57:08;;;;;;;59.13;25.03;;;0.80;99.90;;;;;;5114532;28;20480;-88
2021/12/21 05:59:42;;;;;;;46.13;23.97;;;0.80;99.90;;;;;;5115503;28;20869;-89
2021/12/21 06:02:09;;;;;;;48.27;21.80;;;0.80;99.90;;;;;;5101965;28;20981;-90
2021/12/21 06:04:48;;;;;;;42.23;20.30;;;0.80;99.90;;;;;;5098178;28;20453;-90
2021/12/21 06:07:16;;;;;;;49.23;21.47;;;0.80;99.90;;;;;;5097509;28;20480;-90
2021/12/21 06:09:46;;;;;;;46.03;20.43;;;0.80;99.90;;;;;;5097869;28;20513;-89
2021/12/21 06:12:33;;;;;;;41.97;20.40;;;0.70;99.90;;;;;;5098082;28;20491;-91
2021/12/21 06:15:16;;;;;;;47.33;19.80;;;0.70;99.90;;;;;;5098073;28;20429;-90
2021/12/21 06:23:57;;;;;;;37.60;18.53;;;0.50;99.90;;;;;;5097556;28;20413;-90
2021/12/21 06:26:26;;;;;;;37.07;19.07;;;0.30;99.90;;;;;;5097878;28;20477;-91
2021/12/21 06:28:55;;;;;;;42.87;19.10;;;0.30;99.90;;;;;;5097806;28;20449;-91
2021/12/21 06:31:24;;;;;;;43.93;18.57;;;0.30;99.90;;;;;;5097676;28;20426;-89
2021/12/21 06:33:57;;;;;;;43.97;20.07;;;0.20;99.90;;;;;;5097561;28;20422;-89
2021/12/21 06:36:26;;;;;;;35.60;19.03;;;0.20;99.90;;;;;;5097126;28;20452;-88
2021/12/21 06:38:57;;;;;;;35.17;18.73;;;0.10;99.90;;;;;;5097270;28;20429;-88
2021/12/21 06:41:26;;;;;;;41.53;21.53;;;0.20;99.90;;;;;;5097851;28;20511;-89
2021/12/21 06:43:56;;;;;;;43.57;18.27;;;0.20;99.90;;;;;;5098284;28;20539;-90
2021/12/21 06:46:48;;;;;;;44.73;18.70;;;0.20;99.90;;;;;;5098613;28;20481;-89
2021/12/21 06:52:04;;;;;;;36.83;18.13;;;0.00;99.90;;;;;;5119845;28;20498;-88
2021/12/21 06:54:35;;;;;;;43.93;19.73;;;0.00;99.90;;;;;;5118694;28;20866;-88
2021/12/21 06:57:03;;;;;;;41.53;18.80;;;0.00;99.90;;;;;;5117329;28;20437;-88
2021/12/21 06:59:30;;;;;;;41.03;19.07;;;0.20;99.90;;;;;;5117695;28;20574;-87
2021/12/21 07:02:00;;;;;;;38.50;19.47;;;0.20;99.90;;;;;;5117544;28;20436;-83
2021/12/21 07:04:27;;;;;;;41.23;19.73;;;0.10;99.90;;;;;;5116616;27;20449;-84
2021/12/21 07:06:57;;;;;;;45.07;18.90;;;0.20;99.90;;;;;;5115682;28;20476;-81
2021/12/21 07:09:32;;;;;;;38.23;20.30;;;0.10;99.90;;;;;;5116214;28;20524;-82
2021/12/21 07:12:27;;;;;;;46.53;20.20;;;0.10;99.90;;;;;;5114657;28;20790;-80
2021/12/21 07:20:26;;;;;;;37.73;19.27;;;0.10;99.90;;;;;;5115137;27;20924;-84
2021/12/21 07:22:53;;;;;;;45.43;20.90;;;0.00;99.90;;;;;;5116199;28;20441;-81
2021/12/21 07:25:20;;;;;;;48.03;20.77;;;0.20;99.90;;;;;;5114895;28;20437;-80
2021/12/21 07:27:47;;;;;;;42.20;20.33;;;0.10;99.90;;;;;;5115141;28;20476;-80
2021/12/21 07:30:14;;;;;;;50.57;20.60;;;0.10;99.90;;;;;;5115012;28;20890;-87
2021/12/21 07:32:42;;;;;;;40.87;20.73;;;0.20;99.90;;;;;;5114890;28;20449;-84
2021/12/21 07:35:09;;;;;;;33.93;18.97;;;0.20;99.90;;;;;;5112727;27;20456;-85
2021/12/21 07:37:36;;;;;;;45.88;25.67;;;0.20;99.90;;;;;;5114078;28;20428;-78
2021/12/21 07:40:04;;;;;;;46.30;21.03;;;0.30;99.90;;;;;;5114779;28;20212;-79
2021/12/21 07:42:31;;;;;;;35.80;18.70;;;0.50;99.90;;;;;;5115336;28;20440;-79
2021/12/21 07:44:59;;;;;;;42.90;18.37;;;0.50;99.90;;;;;;5115668;28;20476;-79
2021/12/21 07:47:27;;;;;;;43.20;19.03;;;0.30;99.90;;;;;;5114989;28;20484;-83
2021/12/21 07:49:56;;;;;;;41.00;19.33;;;0.30;99.90;;;;;;5115007;28;20444;-84
2021/12/21 07:52:23;;;;;;;41.07;18.87;;;0.30;99.90;;;;;;5115228;28;20437;-87
2021/12/21 07:54:51;;;;;;;40.13;18.97;;;0.30;99.90;;;;;;5115161;28;20441;-82
2021/12/21 07:57:18;;;;;;;35.67;18.30;;;0.10;99.90;;;;;;5114859;28;20456;-84
2021/12/21 07:59:45;;;;;;;34.43;17.43;;;-0.30;99.90;;;;;;5114584;28;20445;-83
2021/12/21 08:02:13;;;;;;;37.83;19.00;;;-0.40;99.90;;;;;;5114431;28;20437;-85
2021/12/21 08:04:43;;;;;;;37.93;17.90;;;-0.40;99.90;;;;;;5114930;28;20442;-82
2021/12/21 08:07:21;;;;;;;39.70;17.90;;;-0.40;99.90;;;;;;5114492;28;20468;-83
2021/12/21 08:09:53;;;;;;;34.43;18.10;;;-0.30;99.90;;;;;;5113694;28;20441;-82
2021/12/21 08:12:21;;;;;;;41.92;21.73;;;-0.40;99.90;;;;;;5115718;27;20432;-77
2021/12/21 08:14:49;;;;;;;35.83;18.67;;;-0.40;99.90;;;;;;5135309;27;20260;-77
2021/12/21 08:17:17;;;;;;;35.20;18.83;;;-0.50;99.90;;;;;;5135888;27;20444;-80
2021/12/21 08:19:46;;;;;;;36.43;18.03;;;-0.40;99.90;;;;;;5135559;27;20467;-80
2021/12/21 08:22:14;;;;;;;46.70;19.13;;;-0.50;99.90;;;;;;5135121;27;20455;-84
2021/12/21 08:24:43;;;;;;;34.87;17.07;;;-0.50;99.90;;;;;;5135549;27;20439;-82
2021/12/21 08:27:12;;;;;;;42.03;19.73;;;-0.50;99.90;;;;;;5134970;27;20966;-81
2021/12/21 08:29:39;;;;;;;42.73;22.07;;;-0.40;99.90;;;;;;5135521;27;20954;-85
2021/12/21 08:32:08;;;;;;;48.10;22.53;;;-0.40;99.90;;;;;;5132422;27;20826;-85
2021/12/21 08:34:35;;;;;;;42.13;21.53;;;-0.50;99.90;;;;;;5114121;28;20539;-83
2021/12/21 08:37:03;;;;;;;37.67;19.03;;;-0.30;99.90;;;;;;5114400;28;20441;-88
2021/12/21 08:39:38;;;;;;;49.40;19.17;;;-0.40;99.90;;;;;;5114417;28;20951;-83
2021/12/21 08:42:08;;;;;;;41.70;17.97;;;-0.30;99.90;;;;;;5112489;28;20436;-87
2021/12/21 08:44:35;;;;;;;33.70;18.83;;;-0.20;99.90;;;;;;5114698;28;20490;-84
2021/12/21 08:47:02;;;;;;;44.40;19.33;;;0.00;99.90;;;;;;5114096;28;20492;-83
2021/12/21 08:49:29;;;;;;;39.93;19.43;;;0.00;99.90;;;;;;5114930;28;20453;-84
2021/12/21 08:51:57;;;;;;;36.00;17.90;;;0.00;99.90;;;;;;5114992;28;20441;-84
2021/12/21 08:54:24;;;;;;;43.87;20.47;;;0.00;99.90;;;;;;5114173;28;20422;-85
2021/12/21 08:56:53;;;;;;;39.07;19.00;;;0.20;99.90;;;;;;5115248;28;20445;-82
2021/12/21 08:59:20;;;;;;;27.43;18.33;;;0.20;99.90;;;;;;5116115;28;20447;-83
2021/12/21 09:01:47;;;;;;;35.23;18.00;;;0.20;99.90;;;;;;5116787;28;20437;-76
2021/12/21 09:04:18;;;;;;;33.50;18.53;;;0.30;99.90;;;;;;5119645;28;20445;-85
2021/12/21 09:06:45;;;;;;;39.60;19.80;;;0.50;99.90;;;;;;5111794;27;20557;-80
2021/12/21 09:09:14;;;;;;;36.33;19.30;;;0.50;99.90;;;;;;5123832;27;20457;-86
2021/12/21 09:11:45;;;;;;;38.23;19.30;;;0.50;99.90;;;;;;5113685;28;20441;-85
2021/12/21 09:14:17;;;;;;;33.67;18.67;;;0.60;99.90;;;;;;5114543;28;20939;-86
2021/12/21 09:16:46;;;;;;;27.53;18.03;;;0.70;99.90;;;;;;5114002;28;20442;-83
2021/12/21 09:19:15;;;;;;;26.40;16.40;;;0.60;99.90;;;;;;5114684;27;20894;-89
2021/12/21 09:21:43;;;;;;;38.80;18.67;;;0.70;99.90;;;;;;5113919;28;20440;-86
2021/12/21 09:24:13;;;;;;;30.33;17.23;;;0.80;99.90;;;;;;5115431;28;20460;-85
2021/12/21 09:26:41;;;;;;;38.27;17.70;;;0.80;99.90;;;;;;5114353;28;20487;-87
2021/12/21 09:29:07;;;;;;;32.57;17.63;;;0.60;99.90;;;;;;5113693;28;20932;-87
2021/12/21 09:31:36;;;;;;;34.83;17.70;;;0.60;99.90;;;;;;5113986;28;20445;-87
2021/12/21 09:34:03;;;;;;;31.13;16.13;;;0.40;99.90;;;;;;5116202;28;20425;-86
2021/12/21 09:36:31;;;;;;;36.70;18.27;;;0.40;99.90;;;;;;5121902;28;20452;-84
2021/12/21 09:39:00;;;;;;;35.13;16.83;;;0.40;99.90;;;;;;5121457;28;20757;-87
2021/12/21 09:41:26;;;;;;;35.40;17.13;;;0.50;99.90;;;;;;5119683;28;20440;-89
2021/12/21 09:43:55;;;;;;;31.93;16.17;;;0.50;99.90;;;;;;5116349;28;20460;-85
2021/12/21 09:46:22;;;;;;;30.90;16.03;;;0.60;99.90;;;;;;5114110;28;20515;-86
2021/12/21 09:48:56;;;;;;;30.03;16.57;;;0.50;99.90;;;;;;5114358;28;20461;-85
2021/12/21 09:51:23;;;;;;;36.63;16.87;;;0.60;99.90;;;;;;5115911;28;20441;-85
2021/12/21 09:53:52;;;;;;;27.10;16.30;;;1.00;99.90;;;;;;5126730;28;20915;-81
2021/12/21 09:56:20;;;;;;;30.63;17.03;;;1.10;99.90;;;;;;5136070;27;20454;-81
2021/12/21 09:58:47;;;;;;;31.07;16.20;;;1.30;99.90;;;;;;5135829;27;20439;-81
2021/12/21 10:01:18;;;;;;;28.77;16.00;;;1.50;99.90;;;;;;5135811;28;20956;-81
2021/12/21 10:05:09;;;;;;;27.47;15.17;;;1.70;99.90;;;;;;5132257;27;20560;-86
2021/12/21 10:07:37;;;;;;;25.93;15.73;;;1.70;99.90;;;;;;5132085;27;20444;-85
2021/12/21 10:10:09;;;;;;;29.40;15.60;;;1.90;99.90;;;;;;5131165;28;20432;-83
2021/12/21 10:12:39;;;;;;;30.03;14.37;;;1.90;99.90;;;;;;5131422;28;20444;-84
2021/12/21 10:15:09;;;;;;;27.20;14.43;;;2.00;99.90;;;;;;5148597;27;20449;-89
2021/12/21 10:17:37;;;;;;;30.17;14.30;;;2.00;99.90;;;;;;5151532;27;20531;-87
2021/12/21 10:20:08;;;;;;;25.80;14.30;;;2.10;99.90;;;;;;5132545;27;20468;-86
2021/12/21 10:22:35;;;;;;;24.33;14.03;;;2.20;99.90;;;;;;5133128;27;20456;-83
2021/12/21 10:25:08;;;;;;;22.43;13.87;;;2.20;99.90;;;;;;5132570;27;20431;-84
2021/12/21 10:27:44;;;;;;;32.17;13.30;;;2.30;99.90;;;;;;5131950;27;20444;-85
2021/12/21 10:30:14;;;;;;;24.50;14.10;;;2.40;99.90;;;;;;5132044;28;20437;-87
2021/12/21 10:32:50;;;;;;;27.23;15.53;;;2.40;99.90;;;;;;5132614;27;20436;-90
2021/12/21 10:35:29;;;;;;;23.50;14.40;;;2.40;99.90;;;;;;5132598;28;20428;-85
2021/12/21 10:38:01;;;;;;;28.90;14.23;;;2.40;99.90;;;;;;5131219;28;20433;-86
2021/12/21 10:40:29;;;;;;;21.70;13.27;;;2.40;99.90;;;;;;5131461;27;20440;-82
2021/12/21 10:42:59;;;;;;;27.97;14.10;;;2.50;99.90;;;;;;5131130;28;20428;-85
2021/12/21 10:45:31;;;;;;;26.73;14.07;;;2.50;99.90;;;;;;5130545;28;20453;-87
2021/12/21 10:48:01;;;;;;;29.33;14.57;;;2.50;99.90;;;;;;5130071;28;20829;-79
2021/12/21 10:50:32;;;;;;;23.33;14.17;;;2.60;99.90;;;;;;5124792;27;20432;-85
2021/12/21 10:53:04;;;;;;;31.27;13.90;;;2.60;99.90;;;;;;5127819;27;20432;-85
2021/12/21 10:55:32;;;;;;;24.93;13.47;;;2.60;99.90;;;;;;5121262;27;20443;-84
2021/12/21 10:58:07;;;;;;;21.77;13.60;;;2.50;99.90;;;;;;5109935;28;20425;-84
2021/12/21 11:00:38;;;;;;;25.53;12.90;;;2.40;99.90;;;;;;5112434;28;20436;-84
2021/12/21 11:03:06;;;;;;;21.77;12.83;;;2.40;99.90;;;;;;5120408;28;20481;-90
2021/12/21 11:05:38;;;;;;;23.60;13.93;;;2.50;99.90;;;;;;5115611;28;20457;-91
2021/12/21 11:08:37;;;;;;;25.97;13.40;;;2.40;99.90;;;;;;5119110;27;20932;-90
2021/12/21 11:11:28;;;;;;;23.13;13.20;;;2.50;99.90;;;;;;5121795;28;20464;-91
2021/12/21 11:14:09;;;;;;;28.42;16.25;;;2.40;99.90;;;;;;5138503;28;20417;-88
2021/12/21 11:16:44;;;;;;;22.37;13.73;;;2.50;99.90;;;;;;5121462;28;20651;-92
2021/12/21 11:19:15;;;;;;;22.53;13.53;;;2.40;99.90;;;;;;5124790;28;20455;-86
2021/12/21 11:21:45;;;;;;;22.70;13.80;;;2.30;99.90;;;;;;5124380;28;20963;-87
2021/12/21 11:24:20;;;;;;;20.00;12.10;;;2.40;99.90;;;;;;5123115;28;20476;-87
2021/12/21 11:26:49;;;;;;;27.73;12.77;;;2.50;99.90;;;;;;5124109;28;20825;-91
2021/12/21 11:29:19;;;;;;;25.77;12.17;;;2.40;99.90;;;;;;5118010;28;20451;-86
2021/12/21 11:31:54;;;;;;;22.10;13.23;;;2.40;99.90;;;;;;5103127;28;20449;-86
2021/12/21 11:34:31;;;;;;;21.43;12.63;;;2.50;99.90;;;;;;5118429;28;20448;-88
2021/12/21 11:39:47;;;;;;;18.90;11.83;;;3.00;99.90;;;;;;5114329;28;20491;-87
2021/12/21 11:42:29;;;;;;;19.40;11.50;;;3.00;99.90;;;;;;5096265;28;20441;-88
2021/12/21 11:45:07;;;;;;;18.60;11.50;;;3.10;99.90;;;;;;5096511;28;20489;-86
2021/12/21 11:47:40;;;;;;;23.53;10.70;;;3.30;99.90;;;;;;5097636;28;21042;-89
2021/12/21 11:50:11;;;;;;;19.83;10.30;;;3.40;99.90;;;;;;5098546;28;20449;-88
2021/12/21 11:52:49;;;;;;;16.47;10.93;;;3.60;99.90;;;;;;5098123;28;20537;-91
2021/12/21 11:55:24;;;;;;;18.63;10.83;;;3.20;99.90;;;;;;5098572;28;20438;-88
2021/12/21 11:57:55;;;;;;;19.57;9.93;;;3.40;99.90;;;;;;5100716;28;20465;-88
2021/12/21 12:00:58;;;;;;;20.17;10.67;;;3.40;99.90;;;;;;5102819;28;20453;-88
2021/12/21 12:03:27;;;;;;;15.37;9.80;;;3.40;99.90;;;;;;5103837;28;20467;-89
2021/12/21 12:06:00;;;;;;;18.93;9.70;;;3.40;99.90;;;;;;5104790;28;20442;-89
2021/12/21 12:09:05;;;;;;;21.23;10.33;;;3.30;99.90;;;;;;5102029;28;20437;-88
2021/12/21 12:11:36;;;;;;;15.40;9.90;;;3.50;99.90;;;;;;5108466;28;20951;-90
2021/12/21 12:14:07;;;;;;;16.27;9.30;;;3.50;99.90;;;;;;5105510;28;20448;-89
2021/12/21 12:16:45;;;;;;;17.33;9.77;;;3.40;99.90;;;;;;5119786;28;20444;-86
2021/12/21 12:19:30;;;;;;;15.67;9.33;;;3.60;99.90;;;;;;5118301;27;20923;-88
2021/12/21 12:21:59;;;;;;;18.97;9.23;;;3.90;99.90;;;;;;5118496;28;20456;-88
2021/12/21 12:25:01;;;;;;;15.50;10.80;;;4.00;99.90;;;;;;5098281;28;20532;-87
2021/12/21 12:27:30;;;;;;;20.63;11.53;;;3.90;99.90;;;;;;5105324;28;20441;-86
2021/12/21 12:30:00;;;;;;;16.63;10.10;;;3.60;99.90;;;;;;5096348;28;20426;-89
2021/12/21 12:32:37;;;;;;;18.83;9.70;;;3.70;99.90;;;;;;5096135;28;20795;-88
2021/12/21 12:35:06;;;;;;;20.37;9.53;;;3.60;99.90;;;;;;5103409;28;20962;-87
2021/12/21 12:37:33;;;;;;;15.87;9.33;;;3.60;99.90;;;;;;5115409;28;20445;-87
2021/12/21 12:40:11;;;;;;;18.60;9.53;;;3.60;99.90;;;;;;5121356;28;20445;-89
2021/12/21 12:42:42;;;;;;;18.53;9.70;;;3.60;99.90;;;;;;5123465;28;20444;-88
2021/12/21 12:45:12;;;;;;;15.67;9.70;;;3.80;99.90;;;;;;5125410;28;20490;-90
2021/12/21 12:47:44;;;;;;;14.50;9.87;;;3.80;99.90;;;;;;5125052;28;20464;-89
2021/12/21 12:50:25;;;;;;;18.27;9.57;;;3.80;99.90;;;;;;5125407;28;20611;-88
2021/12/21 12:52:55;;;;;;;17.27;8.60;;;4.00;99.90;;;;;;5117449;28;20521;-89
2021/12/21 12:55:26;;;;;;;12.90;9.10;;;4.30;99.90;;;;;;5105425;28;20452;-89
2021/12/21 12:57:57;;;;;;;15.80;8.83;;;4.20;99.90;;;;;;5105169;28;20460;-89
2021/12/21 13:00:32;;;;;;;14.80;9.03;;;4.20;99.90;;;;;;5104568;28;20464;-89
2021/12/21 13:03:02;;;;;;;16.77;8.57;;;4.30;99.90;;;;;;5104751;28;20453;-89
2021/12/21 13:05:36;;;;;;;18.67;9.07;;;4.40;99.90;;;;;;5104411;28;20319;-90
2021/12/21 13:08:12;;;;;;;15.50;9.40;;;4.40;99.90;;;;;;5106966;28;20445;-90
2021/12/21 13:10:55;;;;;;;16.33;8.33;;;4.60;99.90;;;;;;5121873;28;20200;-90
2021/12/21 13:13:33;;;;;;;14.70;9.37;;;4.60;99.90;;;;;;5096836;28;20216;-86
2021/12/21 13:16:08;;;;;;;20.90;11.60;;;4.60;99.90;;;;;;5098579;28;20204;-88
2021/12/21 13:18:42;;;;;;;23.60;11.27;;;4.40;99.90;;;;;;5098518;28;20932;-89
2021/12/21 13:21:26;;;;;;;18.03;10.40;;;4.20;99.90;;;;;;5106030;28;20501;-88
2021/12/21 13:24:02;;;;;;;18.07;10.47;;;4.10;99.90;;;;;;5116556;28;20473;-88
2021/12/21 13:26:36;;;;;;;19.37;10.27;;;4.10;99.90;;;;;;5116531;28;20452;-87
2021/12/21 13:29:05;;;;;;;21.20;9.70;;;4.20;99.90;;;;;;5119253;28;20456;-90
2021/12/21 13:31:32;;;;;;;17.10;10.07;;;4.10;99.90;;;;;;5108026;28;20464;-90
2021/12/21 13:34:02;;;;;;;17.10;9.13;;;4.00;99.90;;;;;;5106020;28;20459;-87
2021/12/21 13:36:36;;;;;;;17.63;9.00;;;4.00;99.90;;;;;;5118611;28;20455;-86
2021/12/21 13:39:16;;;;;;;19.27;9.25;;;4.10;99.90;;;;;;5122604;28;20437;-89